Overton, Nevada Weather observations

Data are for observation ending at time listed.
 Day   Time    Ave.   Ave.  Ave.  Vector   Max.   Stn.    Total    Solar   Ave.  
  of    of     Air    Rel.  Wind   Wind    Wind   Baro.  Precip.   Rad.    Soil  
Year   Day     Temp.  Hum.  Speed  Dir.    Gust   Pres.                    Temp. 
2026   (PST)    F      %     mph   deg.    mph     mb.     in.     W/m2     F   
------------------------------------------------------------------------------
 246   11:00   94.8     8   11.0   180     18.7   965.3    0.00     891    107.7
 246   11:10   95.0     8    8.8   170     18.1   965.2    0.00     895    108.3
 246   11:20   94.8     8   11.3   173     20.0   965.1    0.00     899    108.4
 246   11:30   95.5     8    8.4   161     17.0   964.9    0.00     900    108.7
 246   11:40   96.0     8    8.7   171     20.5   964.8    0.00     900    109.2
 246   11:50   96.1     8    9.8   174     22.5   964.7    0.00     897    109.3
 246   12:00   96.2     8    7.4   161     14.2   964.5    0.00     895    109.6
 246   12:10   96.7     8    7.9   148     16.2   964.3    0.00     889    109.4
 246   12:20   97.3     8    7.5   141     16.6   964.2    0.00     882    109.5
 246   12:30   97.4     8    7.3   151     17.0   964.0    0.00     874    108.5
 246   12:40   97.5     8    7.6   141     16.4   964.0    0.00     862    106.9
 246   12:50   97.4     8    9.5   172     16.1   963.8    0.00     849    106.4
 246   13:00   98.1     8    8.2   164     19.2   963.7    0.00     835    105.7
 246   13:10   98.0     8    8.1   163     15.6   963.7    0.00     820    105.1
 246   13:20   98.2     7    8.2   146     17.0   963.7    0.00     803    104.7
 246   13:30   98.6     7    7.1   156     15.1   963.6    0.00     787    105.3
 246   13:40   98.8     7    8.6   146     18.6   963.5    0.00     767    104.7
 246   13:50   98.5     7    9.2   160     18.1   963.5    0.00     746    105.2
 246   14:00   98.7     7    8.1   148     16.4   963.4    0.00     724    104.7
 246   14:10   98.8     7    7.3   134     20.0   963.2    0.00     699    104.2
 246   14:20   99.4     7    7.2   144     17.1   963.1    0.00     674    104.1
 246   14:30   99.2     7    8.3   142     19.9   963.1    0.00     647    103.8
 246   14:40   99.1     7    8.0   137     18.2   963.0    0.00     620    103.3
 246   14:50   99.3     7    8.3   147     16.9   963.0    0.00     593    103.5
 246   15:00   98.6     7    9.5   158     19.1   962.9    0.00     558    103.5
 246   15:10   98.8     7    8.6   147     18.6   962.7    0.00     527    103.0
 246   15:20   98.5     7    9.1   140     19.5   962.6    0.00     502    102.3
 246   15:30   98.1     7    9.7   150     18.9   962.4    0.00     466    102.2
 246   15:40   98.2     7    8.7   160     19.2   962.2    0.00     438    101.9
 246   15:50   98.4     7    8.0   151     21.7   962.2    0.00     393    101.7
 246   16:00   98.1     7    8.8   147     23.2   962.2    0.00      88    101.2
 246   16:10   97.9     7    8.1   144     17.0   962.1    0.00     167    100.7
 246   16:20   98.0     7    7.6   136     15.4   962.1    0.00     303    100.4
 246   16:30   97.6     7    8.8   145     18.0   962.0    0.00     269    100.0
 246   16:40   97.6     7    7.7   142     19.1   961.9    0.00     236    99.7
 246   16:50   97.1     7    9.4   140     21.0   961.8    0.00     204    99.2
 246   17:00   97.0     7    8.3   146     17.7   961.8    0.00     173    98.9
 246   17:10   96.8     7    8.9   154     18.3   961.7    0.00     104    98.7
 246   17:20   96.5     7    7.7   150     15.3   961.5    0.00     102    98.1
 246   17:30   96.1     7    7.3   149     13.4   961.3    0.00      84    97.5
 246   17:40   95.6     8    6.9   157     14.5   961.3    0.00      51    97.0
 246   17:50   95.1     8    6.5   155     17.6   961.2    0.00      15    96.5
 246   18:00   94.5     8    8.0   158     19.6   961.2    0.00       9    96.0
 246   18:10   94.3     8    8.4   162     17.2   961.0    0.00       4    95.7
 246   18:20   93.8     8    6.3   162     12.8   960.9    0.00       1    95.0
 246   18:30   93.5     8    6.9   158     13.7   960.8    0.00       0    94.6
 246   18:40   93.3     8    4.3   155      9.6   960.8    0.00       0    94.2
 246   18:50   92.7     9    3.1   139      7.3   960.9    0.00       0    93.6
 246   19:00   91.3     9    3.7   139      8.3   961.0    0.00       0    93.0
 246   19:10   91.0    10    3.1   144      8.5   960.9    0.00       0    92.6
 246   19:20   90.7    10    4.3   148      8.0   960.9    0.00       0    92.3
 246   19:30   90.6    11    4.3   150      8.1   960.9    0.00       0    92.0
 246   19:40   90.5    13    4.6   154      9.1   960.9    0.00       0    91.8
 246   19:50   90.4    13    4.5   152     11.4   961.0    0.00       0    91.5
 246   20:00   90.4    13    4.4   148      9.2   961.1    0.00       0    91.2
 246   20:10   90.4    12    4.0   148     11.8   961.2    0.00       0    91.1
 246   20:20   90.4    11    4.9   151     10.5   961.3    0.00       0    90.8
 246   20:30   90.3    11    4.7   147     10.7   961.3    0.00       0    90.6
 246   20:40   90.2    10    5.6   152     10.7   961.4    0.00       0    90.4
 246   20:50   90.0    10    5.1   152     10.2   961.4    0.00       0    90.2
 246   21:00   89.5    10    5.3   152     12.5   961.4    0.00       0    89.8
 246   21:10   89.5     9    6.4   157     13.4   961.3    0.00       0    89.7
 246   21:20   89.2    10    5.6   158     11.0   961.3    0.00       0    89.4
 246   21:30   88.7    10    4.2   151      8.8   961.3    0.00       0    89.0
 246   21:40   88.0    10    3.9   150      8.9   961.2    0.00       0    88.7
 246   21:50   88.0    10    4.0   144      8.5   961.1    0.00       0    88.5
 246   22:00   87.1    10    3.1   130      7.3   961.1    0.00       0    88.0
 246   22:10   86.0    11    2.7   135      6.3   961.1    0.00       0    87.5
 246   22:20   85.5    11    3.5   126      7.0   961.1    0.00       0    87.2
 246   22:30   84.1    12    2.6   116      5.6   961.0    0.00       0    86.5
 246   22:40   82.4    13    2.5   119      5.5   960.9    0.00       0    86.0
 246   22:50   82.8    14    2.4   129      4.5   960.9    0.00       0    85.9
 246   23:00   82.6    14    2.4   144      5.0   960.9    0.00       0    85.6
 246   23:10   81.4    16    1.8   138      5.6   960.9    0.00       0    85.1
 246   23:20   81.1    16    2.2   139      4.5   960.9    0.00       0    84.9
 246   23:30   82.0    14    3.1   125      6.9   960.9    0.00       0    84.8
 246   23:40   82.4    14    3.2   126      7.4   960.9    0.00       0    84.6
 246   23:50   82.2    13    3.2   131      6.9   960.9    0.00       0    84.3
 247    0:00   81.5    13    3.1   116      5.1   960.9    0.00       0    83.9
 247    0:10   80.2    14    2.7   115      5.2   960.9    0.00       0    83.5
 247    0:20   79.5    14    2.2   119      4.1   960.9    0.00       0    83.0
 247    0:30   79.7    13    2.1   126      5.3   960.9    0.00       0    83.0
 247    0:40   80.4    13    2.1   130      5.3   960.9    0.00       0    83.0
 247    0:50   80.3    12    2.6   136      6.1   960.8    0.00       0    82.8
 247    1:00   80.3    12    3.7   143     12.3   960.8    0.00       0    82.8
 247    1:10   82.1    11    3.6   144      9.2   960.9    0.00       0    83.0
 247    1:20   82.6    11    4.1   150      8.6   960.9    0.00       0    83.0
 247    1:30   84.4    10    5.5   131     12.3   961.0    0.00       0    83.6
 247    1:40   84.4    10    5.1   128     11.5   961.2    0.00       0    83.7
 247    1:50   84.4    11    5.2   142     10.3   961.3    0.00       0    83.6
 247    2:00   83.6    12    4.2   130      7.6   961.4    0.00       0    83.3
 247    2:10   82.5    13    3.6   132      7.7   961.5    0.00       0    83.0
 247    2:20   81.2    15    3.1   148      7.7   961.6    0.00       0    82.5
 247    2:30   79.2    16    3.0   157      5.3   961.6    0.00       0    82.0
 247    2:40   78.6    17    3.0   172      4.7   961.6    0.00       0    81.7
 247    2:50   77.8    17    3.1   177      5.7   961.6    0.00       0    81.4
 247    3:00   78.2    17    3.1   163      8.1   961.6    0.00       0    81.3
 247    3:10   77.4    18    2.7   151      6.9   961.7    0.00       0    80.9
 247    3:20   78.0    17    1.8   126      5.3   961.7    0.00       0    80.9
 247    3:30   77.6    18    1.2   139      2.6   961.7    0.00       0    80.3
 247    3:40   75.7    20    0.9   185      2.9   961.7    0.00       0    79.6
 247    3:50   74.3    21    1.1   139      3.1   961.7    0.00       0    79.1
 247    4:00   73.8    22    0.9   138      2.0   961.6    0.00       0    79.0
 247    4:10   72.2    24    0.0    78      0.7   961.6    0.00       0    77.5
 247    4:20   69.4    29    0.2    84      0.9   961.5    0.00       0    76.8
 247    4:30   67.8    30    0.7   332      1.8   961.5    0.00       0    76.5
 247    4:40   68.6    28    0.3   299      1.1   961.5    0.00       0    76.9
 247    4:50   68.6    27    0.2   356      1.2   961.5    0.00       0    75.7
 247    5:00   66.5    32    1.2   351      2.0   961.6    0.00       0    75.4
 247    5:10   66.1    31    0.5   326      1.8   961.6    0.00       2    75.4
 247    5:20   65.6    30    0.4   299      1.5   961.7    0.00       5    74.8
 247    5:30   65.2    30    1.8   299      3.7   961.9    0.00      11    74.7
 247    5:40   66.0    28    1.8   302      3.8   962.0    0.00      46    74.9
 247    5:50   66.0    30    2.2   314      3.1   962.2    0.00      78    77.5
 247    6:00   66.4    29    1.3   321      2.8   962.5    0.00     107    79.6
 247    6:10   68.8    27    0.7   309      2.2   962.7    0.00     138    81.8
 247    6:20   71.2    24    0.5   338      2.0   963.0    0.00     170    84.4
 247    6:30   74.0    22    0.1   355      1.1   963.2    0.00     204    86.4
 247    6:40   75.4    21    0.2   351      1.2   963.5    0.00     238    88.2
 247    6:50   77.0    21    0.5     0      1.4   963.7    0.00     273    89.8
 247    7:00   77.6    22    0.9   332      1.8   964.0    0.00     307    91.3
 247    7:10   78.8    20    1.1   344      2.6   964.2    0.00     342    93.0
 247    7:20   80.7    21    1.8   356      3.4   964.4    0.00     376    94.0
 247    7:30   81.3    21    2.3   342      3.3   964.6    0.00     411    95.0
 247    7:40   82.3    22    3.3   350      5.2   964.8    0.00     447    95.7
 247    7:50   84.5    19    2.7    19      4.1   965.0    0.00     480    98.2
 247    8:00   85.3    15    4.4    73      7.1   965.1    0.00     512    99.4
 247    8:10   85.7    14    3.6    65      5.9   965.3    0.00     542    100.6
 247    8:20   86.8    14    2.7    61      4.4   965.4    0.00     573    101.9
 247    8:30   88.6    13    1.3    46      2.7   965.6    0.00     601    103.4
 247    8:40   90.5    12    1.2    90      3.1   965.7    0.00     629    105.4
 247    8:50   90.4    12    3.5   153     11.0   965.8    0.00     656    105.9
 247    9:00   90.6    12    8.0   166     17.0   965.9    0.00     683    106.4
 247    9:10   91.1    12    5.9   146     14.1   966.0    0.00     709    107.0
 247    9:20   91.6    12    3.9   149      9.9   966.1    0.00     730    108.3
 247    9:30   92.7    12    5.5   157     14.1   966.1    0.00     752    109.9
 247    9:40   93.6    13    7.2   153     15.3   966.1    0.00     771    110.0
 247    9:50   93.9    13    7.9   155     15.6   966.1    0.00     787    110.4
 247   10:00   93.1    14   12.7   174     21.7   966.1    0.00     803    110.2
 247   10:10   93.7    14   11.2   174     21.9   966.1    0.00     819    110.2
 247   10:20   93.8    14   13.2   177     22.1   966.0    0.00     834    109.8
 247   10:30   94.5    13   11.1   186     18.3   965.9    0.00     849    109.8
 247   10:40   94.4    13   13.5   181     23.4   965.8    0.00     862    109.8
 247   10:50   94.6    13   10.7   156     21.4   965.7    0.00     874    109.2

Return to Overton, Nevada graphs page.


Western Regional Climate Center,wrcc@dri.edu